sensor_id;sensor_type;location;lat;lon;timestamp;P1;durP1;ratioP1;P2;durP2;ratioP2
53263;SDS011;39153;52.680;6.172;2023-07-09T00:01:35;11.75;;;7.57;;
53263;SDS011;39153;52.680;6.172;2023-07-09T00:04:02;11.63;;;7.53;;
53263;SDS011;39153;52.680;6.172;2023-07-09T00:06:28;11.85;;;7.18;;
53263;SDS011;39153;52.680;6.172;2023-07-09T00:08:54;10.40;;;7.63;;
53263;SDS011;39153;52.680;6.172;2023-07-09T00:11:19;12.85;;;8.00;;
53263;SDS011;39153;52.680;6.172;2023-07-09T00:13:45;11.38;;;8.27;;
53263;SDS011;39153;52.680;6.172;2023-07-09T00:16:16;10.68;;;7.22;;
53263;SDS011;39153;52.680;6.172;2023-07-09T00:18:46;11.23;;;7.18;;
53263;SDS011;39153;52.680;6.172;2023-07-09T00:21:14;12.02;;;8.13;;
53263;SDS011;39153;52.680;6.172;2023-07-09T00:23:41;10.38;;;7.20;;
53263;SDS011;39153;52.680;6.172;2023-07-09T00:26:16;12.13;;;8.02;;
53263;SDS011;39153;52.680;6.172;2023-07-09T00:28:45;9.73;;;7.47;;
53263;SDS011;39153;52.680;6.172;2023-07-09T00:31:12;10.48;;;7.45;;
53263;SDS011;39153;52.680;6.172;2023-07-09T00:33:40;11.50;;;7.47;;
53263;SDS011;39153;52.680;6.172;2023-07-09T00:36:17;10.95;;;7.40;;
53263;SDS011;39153;52.680;6.172;2023-07-09T00:38:48;13.98;;;8.13;;
53263;SDS011;39153;52.680;6.172;2023-07-09T00:41:20;11.30;;;7.88;;
53263;SDS011;39153;52.680;6.172;2023-07-09T00:43:48;11.65;;;8.25;;
53263;SDS011;39153;52.680;6.172;2023-07-09T00:49:05;11.05;;;7.88;;
53263;SDS011;39153;52.680;6.172;2023-07-09T00:51:36;12.48;;;7.60;;
53263;SDS011;39153;52.680;6.172;2023-07-09T00:54:11;14.40;;;8.23;;
53263;SDS011;39153;52.680;6.172;2023-07-09T00:56:55;14.00;;;7.68;;
53263;SDS011;39153;52.680;6.172;2023-07-09T00:59:26;10.85;;;7.95;;
53263;SDS011;39153;52.680;6.172;2023-07-09T01:01:54;12.57;;;8.18;;
53263;SDS011;39153;52.680;6.172;2023-07-09T01:04:21;10.27;;;7.82;;
53263;SDS011;39153;52.680;6.172;2023-07-09T01:06:52;10.98;;;7.80;;
53263;SDS011;39153;52.680;6.172;2023-07-09T01:09:19;11.93;;;8.23;;
53263;SDS011;39153;52.680;6.172;2023-07-09T01:11:47;13.95;;;8.40;;
53263;SDS011;39153;52.680;6.172;2023-07-09T01:14:13;11.55;;;7.82;;
53263;SDS011;39153;52.680;6.172;2023-07-09T01:16:46;11.63;;;7.80;;
53263;SDS011;39153;52.680;6.172;2023-07-09T01:19:41;11.80;;;8.20;;
53263;SDS011;39153;52.680;6.172;2023-07-09T01:22:12;11.55;;;8.65;;
53263;SDS011;39153;52.680;6.172;2023-07-09T01:24:48;10.85;;;8.18;;
53263;SDS011;39153;52.680;6.172;2023-07-09T01:27:21;12.90;;;8.20;;
53263;SDS011;39153;52.680;6.172;2023-07-09T01:29:54;10.27;;;7.55;;
53263;SDS011;39153;52.680;6.172;2023-07-09T01:32:21;11.00;;;7.55;;
53263;SDS011;39153;52.680;6.172;2023-07-09T01:34:48;10.93;;;7.97;;
53263;SDS011;39153;52.680;6.172;2023-07-09T01:37:16;11.20;;;8.02;;
53263;SDS011;39153;52.680;6.172;2023-07-09T01:39:43;11.13;;;7.95;;
53263;SDS011;39153;52.680;6.172;2023-07-09T01:42:09;12.10;;;8.27;;
53263;SDS011;39153;52.680;6.172;2023-07-09T01:44:35;14.30;;;8.68;;
53263;SDS011;39153;52.680;6.172;2023-07-09T01:47:03;11.98;;;8.43;;
53263;SDS011;39153;52.680;6.172;2023-07-09T01:49:30;14.15;;;8.52;;
53263;SDS011;39153;52.680;6.172;2023-07-09T01:51:58;10.93;;;8.18;;
53263;SDS011;39153;52.680;6.172;2023-07-09T01:54:27;11.55;;;8.30;;
53263;SDS011;39153;52.680;6.172;2023-07-09T01:57:12;12.38;;;8.15;;
53263;SDS011;39153;52.680;6.172;2023-07-09T01:59:48;10.65;;;8.50;;
53263;SDS011;39153;52.680;6.172;2023-07-09T02:02:14;13.00;;;8.50;;
53263;SDS011;39153;52.680;6.172;2023-07-09T02:04:49;11.57;;;8.70;;
53263;SDS011;39153;52.680;6.172;2023-07-09T02:07:20;13.23;;;9.55;;
53263;SDS011;39153;52.680;6.172;2023-07-09T02:09:47;12.65;;;9.15;;
53263;SDS011;39153;52.680;6.172;2023-07-09T02:12:14;10.85;;;8.77;;
53263;SDS011;39153;52.680;6.172;2023-07-09T02:14:40;12.93;;;8.77;;
53263;SDS011;39153;52.680;6.172;2023-07-09T02:17:08;10.82;;;7.88;;
53263;SDS011;39153;52.680;6.172;2023-07-09T02:19:35;17.13;;;9.77;;
53263;SDS011;39153;52.680;6.172;2023-07-09T02:22:01;11.77;;;8.95;;
53263;SDS011;39153;52.680;6.172;2023-07-09T02:24:27;12.25;;;8.15;;
53263;SDS011;39153;52.680;6.172;2023-07-09T02:26:56;12.38;;;9.02;;
53263;SDS011;39153;52.680;6.172;2023-07-09T02:29:22;14.68;;;9.13;;
53263;SDS011;39153;52.680;6.172;2023-07-09T02:31:50;13.15;;;9.13;;
53263;SDS011;39153;52.680;6.172;2023-07-09T02:34:17;13.18;;;8.93;;
53263;SDS011;39153;52.680;6.172;2023-07-09T02:36:44;12.43;;;8.25;;
53263;SDS011;39153;52.680;6.172;2023-07-09T02:39:10;11.95;;;8.32;;
53263;SDS011;39153;52.680;6.172;2023-07-09T02:41:37;12.82;;;8.73;;
53263;SDS011;39153;52.680;6.172;2023-07-09T02:44:06;11.43;;;8.52;;
53263;SDS011;39153;52.680;6.172;2023-07-09T02:46:32;13.05;;;8.63;;
53263;SDS011;39153;52.680;6.172;2023-07-09T02:48:59;12.70;;;9.35;;
53263;SDS011;39153;52.680;6.172;2023-07-09T02:51:25;12.80;;;9.27;;
53263;SDS011;39153;52.680;6.172;2023-07-09T02:53:55;11.82;;;9.07;;
53263;SDS011;39153;52.680;6.172;2023-07-09T02:56:22;12.27;;;8.88;;
53263;SDS011;39153;52.680;6.172;2023-07-09T02:58:49;11.40;;;9.25;;
53263;SDS011;39153;52.680;6.172;2023-07-09T03:01:15;12.52;;;9.00;;
53263;SDS011;39153;52.680;6.172;2023-07-09T03:03:40;12.25;;;9.30;;
53263;SDS011;39153;52.680;6.172;2023-07-09T03:06:06;13.73;;;9.45;;
53263;SDS011;39153;52.680;6.172;2023-07-09T03:08:32;13.50;;;9.98;;
53263;SDS011;39153;52.680;6.172;2023-07-09T03:10:58;12.35;;;9.63;;
53263;SDS011;39153;52.680;6.172;2023-07-09T03:13:23;13.00;;;9.40;;
53263;SDS011;39153;52.680;6.172;2023-07-09T03:15:56;14.18;;;9.60;;
53263;SDS011;39153;52.680;6.172;2023-07-09T03:18:22;14.20;;;8.50;;
53263;SDS011;39153;52.680;6.172;2023-07-09T03:20:49;11.73;;;9.65;;
53263;SDS011;39153;52.680;6.172;2023-07-09T03:23:15;13.57;;;9.20;;
53263;SDS011;39153;52.680;6.172;2023-07-09T03:25:41;13.30;;;9.50;;
53263;SDS011;39153;52.680;6.172;2023-07-09T03:28:07;11.65;;;8.80;;
53263;SDS011;39153;52.680;6.172;2023-07-09T03:30:33;13.60;;;9.93;;
53263;SDS011;39153;52.680;6.172;2023-07-09T03:32:59;14.00;;;9.35;;
53263;SDS011;39153;52.680;6.172;2023-07-09T03:35:25;12.07;;;9.13;;
53263;SDS011;39153;52.680;6.172;2023-07-09T03:37:51;11.32;;;9.10;;
53263;SDS011;39153;52.680;6.172;2023-07-09T03:40:21;11.95;;;9.50;;
53263;SDS011;39153;52.680;6.172;2023-07-09T03:42:47;14.65;;;9.18;;
53263;SDS011;39153;52.680;6.172;2023-07-09T03:45:13;13.73;;;9.60;;
53263;SDS011;39153;52.680;6.172;2023-07-09T03:47:39;13.25;;;9.38;;
53263;SDS011;39153;52.680;6.172;2023-07-09T03:50:06;12.73;;;9.35;;
53263;SDS011;39153;52.680;6.172;2023-07-09T03:52:33;12.10;;;9.73;;
53263;SDS011;39153;52.680;6.172;2023-07-09T03:54:59;15.30;;;9.75;;
53263;SDS011;39153;52.680;6.172;2023-07-09T03:57:26;13.70;;;9.70;;
53263;SDS011;39153;52.680;6.172;2023-07-09T03:59:52;11.73;;;9.25;;
53263;SDS011;39153;52.680;6.172;2023-07-09T04:02:18;12.13;;;9.27;;
53263;SDS011;39153;52.680;6.172;2023-07-09T04:04:44;10.63;;;8.65;;
53263;SDS011;39153;52.680;6.172;2023-07-09T04:07:09;12.85;;;9.57;;
53263;SDS011;39153;52.680;6.172;2023-07-09T04:09:35;14.10;;;9.52;;
53263;SDS011;39153;52.680;6.172;2023-07-09T04:12:01;11.55;;;8.82;;
53263;SDS011;39153;52.680;6.172;2023-07-09T04:14:28;11.85;;;8.80;;
53263;SDS011;39153;52.680;6.172;2023-07-09T04:16:54;11.57;;;9.05;;
53263;SDS011;39153;52.680;6.172;2023-07-09T04:19:20;13.25;;;9.55;;
53263;SDS011;39153;52.680;6.172;2023-07-09T04:21:45;12.32;;;9.45;;
53263;SDS011;39153;52.680;6.172;2023-07-09T04:24:11;15.13;;;9.48;;
53263;SDS011;39153;52.680;6.172;2023-07-09T04:26:37;11.80;;;9.52;;
53263;SDS011;39153;52.680;6.172;2023-07-09T04:29:04;13.52;;;9.80;;
53263;SDS011;39153;52.680;6.172;2023-07-09T04:31:31;12.75;;;9.30;;
53263;SDS011;39153;52.680;6.172;2023-07-09T04:33:57;12.85;;;9.43;;
53263;SDS011;39153;52.680;6.172;2023-07-09T04:36:22;14.63;;;9.23;;
53263;SDS011;39153;52.680;6.172;2023-07-09T04:38:48;15.13;;;9.00;;
53263;SDS011;39153;52.680;6.172;2023-07-09T04:41:14;11.02;;;9.27;;
53263;SDS011;39153;52.680;6.172;2023-07-09T04:43:40;13.25;;;9.35;;
53263;SDS011;39153;52.680;6.172;2023-07-09T04:46:05;13.80;;;10.02;;
53263;SDS011;39153;52.680;6.172;2023-07-09T04:48:31;13.02;;;9.57;;
53263;SDS011;39153;52.680;6.172;2023-07-09T04:50:56;12.15;;;9.38;;
53263;SDS011;39153;52.680;6.172;2023-07-09T04:53:24;13.70;;;9.55;;
53263;SDS011;39153;52.680;6.172;2023-07-09T04:55:51;12.27;;;9.27;;
53263;SDS011;39153;52.680;6.172;2023-07-09T04:58:17;11.73;;;9.25;;
53263;SDS011;39153;52.680;6.172;2023-07-09T05:00:43;15.13;;;9.88;;
53263;SDS011;39153;52.680;6.172;2023-07-09T05:03:10;14.80;;;9.38;;
53263;SDS011;39153;52.680;6.172;2023-07-09T05:05:43;12.77;;;9.73;;
53263;SDS011;39153;52.680;6.172;2023-07-09T05:08:09;14.35;;;9.23;;
53263;SDS011;39153;52.680;6.172;2023-07-09T05:10:40;13.00;;;9.25;;
53263;SDS011;39153;52.680;6.172;2023-07-09T05:13:07;13.57;;;9.65;;
53263;SDS011;39153;52.680;6.172;2023-07-09T05:15:33;15.75;;;9.57;;
53263;SDS011;39153;52.680;6.172;2023-07-09T05:17:59;13.45;;;9.30;;
53263;SDS011;39153;52.680;6.172;2023-07-09T05:20:25;11.63;;;8.85;;
53263;SDS011;39153;52.680;6.172;2023-07-09T05:22:50;14.65;;;9.30;;
53263;SDS011;39153;52.680;6.172;2023-07-09T05:25:17;15.50;;;8.88;;
53263;SDS011;39153;52.680;6.172;2023-07-09T05:27:43;11.98;;;9.65;;
53263;SDS011;39153;52.680;6.172;2023-07-09T05:30:08;12.48;;;9.25;;
53263;SDS011;39153;52.680;6.172;2023-07-09T05:32:37;14.45;;;10.20;;
53263;SDS011;39153;52.680;6.172;2023-07-09T05:35:03;13.70;;;9.70;;
53263;SDS011;39153;52.680;6.172;2023-07-09T05:37:29;13.55;;;9.98;;
53263;SDS011;39153;52.680;6.172;2023-07-09T05:39:55;13.88;;;10.23;;
53263;SDS011;39153;52.680;6.172;2023-07-09T05:42:21;12.80;;;10.40;;
53263;SDS011;39153;52.680;6.172;2023-07-09T05:44:47;17.20;;;11.32;;
53263;SDS011;39153;52.680;6.172;2023-07-09T05:47:13;15.38;;;10.45;;
53263;SDS011;39153;52.680;6.172;2023-07-09T05:49:38;14.95;;;10.10;;
53263;SDS011;39153;52.680;6.172;2023-07-09T05:52:04;14.63;;;10.20;;
53263;SDS011;39153;52.680;6.172;2023-07-09T05:54:31;16.05;;;11.05;;
53263;SDS011;39153;52.680;6.172;2023-07-09T05:56:57;12.98;;;10.82;;
53263;SDS011;39153;52.680;6.172;2023-07-09T05:59:22;13.95;;;10.98;;
53263;SDS011;39153;52.680;6.172;2023-07-09T06:01:48;14.70;;;11.30;;
53263;SDS011;39153;52.680;6.172;2023-07-09T06:04:14;16.48;;;11.90;;
53263;SDS011;39153;52.680;6.172;2023-07-09T06:06:40;17.83;;;11.50;;
53263;SDS011;39153;52.680;6.172;2023-07-09T06:09:07;19.63;;;11.57;;
53263;SDS011;39153;52.680;6.172;2023-07-09T06:11:33;14.45;;;11.20;;
53263;SDS011;39153;52.680;6.172;2023-07-09T06:14:00;15.30;;;11.02;;
53263;SDS011;39153;52.680;6.172;2023-07-09T06:16:26;18.75;;;11.38;;
53263;SDS011;39153;52.680;6.172;2023-07-09T06:18:52;15.93;;;11.82;;
53263;SDS011;39153;52.680;6.172;2023-07-09T06:21:17;19.17;;;12.13;;
53263;SDS011;39153;52.680;6.172;2023-07-09T06:23:44;15.25;;;11.40;;
53263;SDS011;39153;52.680;6.172;2023-07-09T06:26:10;17.55;;;11.85;;
53263;SDS011;39153;52.680;6.172;2023-07-09T06:28:36;14.98;;;11.63;;
53263;SDS011;39153;52.680;6.172;2023-07-09T06:31:02;16.08;;;12.75;;
53263;SDS011;39153;52.680;6.172;2023-07-09T06:33:28;15.20;;;11.75;;
53263;SDS011;39153;52.680;6.172;2023-07-09T06:35:55;15.43;;;11.93;;
53263;SDS011;39153;52.680;6.172;2023-07-09T06:38:23;18.08;;;12.65;;
53263;SDS011;39153;52.680;6.172;2023-07-09T06:40:49;16.17;;;11.93;;
53263;SDS011;39153;52.680;6.172;2023-07-09T06:43:15;16.92;;;12.50;;
53263;SDS011;39153;52.680;6.172;2023-07-09T06:45:51;15.57;;;11.48;;
53263;SDS011;39153;52.680;6.172;2023-07-09T06:48:22;17.95;;;12.38;;
53263;SDS011;39153;52.680;6.172;2023-07-09T06:50:48;17.88;;;12.05;;
53263;SDS011;39153;52.680;6.172;2023-07-09T06:53:14;17.33;;;12.90;;
53263;SDS011;39153;52.680;6.172;2023-07-09T06:55:41;16.13;;;12.70;;
53263;SDS011;39153;52.680;6.172;2023-07-09T06:58:07;15.68;;;11.77;;
53263;SDS011;39153;52.680;6.172;2023-07-09T07:00:34;16.45;;;12.35;;
53263;SDS011;39153;52.680;6.172;2023-07-09T07:03:01;17.40;;;12.88;;
53263;SDS011;39153;52.680;6.172;2023-07-09T07:05:27;17.88;;;13.05;;
53263;SDS011;39153;52.680;6.172;2023-07-09T07:07:52;14.52;;;11.77;;
53263;SDS011;39153;52.680;6.172;2023-07-09T07:10:18;18.13;;;12.23;;
53263;SDS011;39153;52.680;6.172;2023-07-09T07:12:46;15.60;;;12.43;;
53263;SDS011;39153;52.680;6.172;2023-07-09T07:15:13;19.75;;;12.57;;
53263;SDS011;39153;52.680;6.172;2023-07-09T07:17:43;17.08;;;12.32;;
53263;SDS011;39153;52.680;6.172;2023-07-09T07:20:09;16.08;;;11.85;;
53263;SDS011;39153;52.680;6.172;2023-07-09T07:22:37;18.40;;;12.38;;
53263;SDS011;39153;52.680;6.172;2023-07-09T07:25:07;18.98;;;12.52;;
53263;SDS011;39153;52.680;6.172;2023-07-09T07:27:33;17.25;;;12.68;;
53263;SDS011;39153;52.680;6.172;2023-07-09T07:30:00;19.20;;;12.52;;
53263;SDS011;39153;52.680;6.172;2023-07-09T07:32:26;17.10;;;12.73;;
53263;SDS011;39153;52.680;6.172;2023-07-09T07:34:52;15.13;;;11.40;;
53263;SDS011;39153;52.680;6.172;2023-07-09T07:37:19;16.15;;;11.40;;
53263;SDS011;39153;52.680;6.172;2023-07-09T07:39:46;15.27;;;10.98;;
53263;SDS011;39153;52.680;6.172;2023-07-09T07:42:12;14.73;;;10.23;;
53263;SDS011;39153;52.680;6.172;2023-07-09T07:44:38;17.58;;;10.35;;
53263;SDS011;39153;52.680;6.172;2023-07-09T07:47:04;13.73;;;9.98;;
53263;SDS011;39153;52.680;6.172;2023-07-09T07:49:30;14.85;;;8.98;;
53263;SDS011;39153;52.680;6.172;2023-07-09T07:51:56;15.20;;;9.65;;
53263;SDS011;39153;52.680;6.172;2023-07-09T07:54:22;16.85;;;8.80;;
53263;SDS011;39153;52.680;6.172;2023-07-09T07:56:47;13.02;;;9.95;;
53263;SDS011;39153;52.680;6.172;2023-07-09T07:59:13;15.15;;;9.50;;
53263;SDS011;39153;52.680;6.172;2023-07-09T08:01:39;13.85;;;8.65;;
53263;SDS011;39153;52.680;6.172;2023-07-09T08:04:05;11.95;;;8.63;;
53263;SDS011;39153;52.680;6.172;2023-07-09T08:06:31;12.45;;;7.93;;
53263;SDS011;39153;52.680;6.172;2023-07-09T08:08:57;13.00;;;8.68;;
53263;SDS011;39153;52.680;6.172;2023-07-09T08:11:23;13.82;;;8.20;;
53263;SDS011;39153;52.680;6.172;2023-07-09T08:13:50;13.68;;;8.50;;
53263;SDS011;39153;52.680;6.172;2023-07-09T08:16:16;16.15;;;9.13;;
53263;SDS011;39153;52.680;6.172;2023-07-09T08:18:42;15.60;;;9.68;;
53263;SDS011;39153;52.680;6.172;2023-07-09T08:21:08;17.50;;;9.75;;
53263;SDS011;39153;52.680;6.172;2023-07-09T08:23:34;15.50;;;9.73;;
53263;SDS011;39153;52.680;6.172;2023-07-09T08:26:01;15.48;;;9.82;;
53263;SDS011;39153;52.680;6.172;2023-07-09T08:28:28;15.43;;;10.73;;
53263;SDS011;39153;52.680;6.172;2023-07-09T08:30:55;13.85;;;10.25;;
53263;SDS011;39153;52.680;6.172;2023-07-09T08:33:21;15.10;;;10.02;;
53263;SDS011;39153;52.680;6.172;2023-07-09T08:35:51;15.85;;;9.98;;
53263;SDS011;39153;52.680;6.172;2023-07-09T08:38:18;13.98;;;9.63;;
53263;SDS011;39153;52.680;6.172;2023-07-09T08:40:56;17.67;;;10.55;;
53263;SDS011;39153;52.680;6.172;2023-07-09T08:48:36;13.38;;;10.20;;
53263;SDS011;39153;52.680;6.172;2023-07-09T08:51:13;14.60;;;10.32;;
53263;SDS011;39153;52.680;6.172;2023-07-09T08:53:53;12.95;;;9.13;;
53263;SDS011;39153;52.680;6.172;2023-07-09T08:56:22;15.00;;;10.70;;
53263;SDS011;39153;52.680;6.172;2023-07-09T08:58:49;16.75;;;10.68;;
53263;SDS011;39153;52.680;6.172;2023-07-09T09:01:28;15.60;;;9.98;;
53263;SDS011;39153;52.680;6.172;2023-07-09T09:03:59;17.67;;;9.32;;
53263;SDS011;39153;52.680;6.172;2023-07-09T09:06:30;16.25;;;9.90;;
53263;SDS011;39153;52.680;6.172;2023-07-09T09:09:12;15.52;;;7.95;;
53263;SDS011;39153;52.680;6.172;2023-07-09T09:16:49;14.65;;;10.13;;
53263;SDS011;39153;52.680;6.172;2023-07-09T09:19:29;17.80;;;10.00;;
53263;SDS011;39153;52.680;6.172;2023-07-09T09:22:13;13.45;;;9.82;;
53263;SDS011;39153;52.680;6.172;2023-07-09T09:27:16;15.43;;;9.73;;
53263;SDS011;39153;52.680;6.172;2023-07-09T09:29:42;14.60;;;9.68;;
53263;SDS011;39153;52.680;6.172;2023-07-09T09:32:24;12.70;;;9.80;;
53263;SDS011;39153;52.680;6.172;2023-07-09T09:34:52;12.32;;;9.13;;
53263;SDS011;39153;52.680;6.172;2023-07-09T09:37:23;14.43;;;9.30;;
53263;SDS011;39153;52.680;6.172;2023-07-09T09:39:49;13.30;;;8.93;;
53263;SDS011;39153;52.680;6.172;2023-07-09T09:42:15;15.77;;;8.68;;
53263;SDS011;39153;52.680;6.172;2023-07-09T09:44:44;14.82;;;8.27;;
53263;SDS011;39153;52.680;6.172;2023-07-09T09:47:11;11.00;;;7.13;;
53263;SDS011;39153;52.680;6.172;2023-07-09T09:49:43;13.75;;;8.90;;
53263;SDS011;39153;52.680;6.172;2023-07-09T09:52:13;15.13;;;7.85;;
53263;SDS011;39153;52.680;6.172;2023-07-09T09:54:41;11.90;;;8.15;;
53263;SDS011;39153;52.680;6.172;2023-07-09T09:57:16;13.00;;;8.65;;
53263;SDS011;39153;52.680;6.172;2023-07-09T09:59:44;10.80;;;7.95;;
53263;SDS011;39153;52.680;6.172;2023-07-09T10:02:20;16.77;;;8.82;;
53263;SDS011;39153;52.680;6.172;2023-07-09T10:04:48;13.35;;;7.97;;
53263;SDS011;39153;52.680;6.172;2023-07-09T10:09:54;13.27;;;8.38;;
53263;SDS011;39153;52.680;6.172;2023-07-09T10:12:32;13.63;;;9.65;;
53263;SDS011;39153;52.680;6.172;2023-07-09T10:17:51;18.73;;;9.13;;
53263;SDS011;39153;52.680;6.172;2023-07-09T10:20:31;11.23;;;7.63;;
53263;SDS011;39153;52.680;6.172;2023-07-09T10:25:48;12.45;;;8.43;;
53263;SDS011;39153;52.680;6.172;2023-07-09T10:28:31;12.30;;;8.88;;
53263;SDS011;39153;52.680;6.172;2023-07-09T10:33:51;15.75;;;10.13;;
53263;SDS011;39153;52.680;6.172;2023-07-09T10:39:45;13.57;;;8.90;;
53263;SDS011;39153;52.680;6.172;2023-07-09T10:42:55;15.52;;;9.93;;
53263;SDS011;39153;52.680;6.172;2023-07-09T10:45:09;13.00;;;9.02;;
53263;SDS011;39153;52.680;6.172;2023-07-09T10:50:29;13.15;;;8.60;;
53263;SDS011;39153;52.680;6.172;2023-07-09T10:53:00;13.95;;;8.88;;
53263;SDS011;39153;52.680;6.172;2023-07-09T10:55:32;12.07;;;8.68;;
53263;SDS011;39153;52.680;6.172;2023-07-09T10:58:05;14.20;;;8.73;;
53263;SDS011;39153;52.680;6.172;2023-07-09T11:00:38;13.98;;;9.07;;
53263;SDS011;39153;52.680;6.172;2023-07-09T11:03:10;8.90;;;5.93;;
53263;SDS011;39153;52.680;6.172;2023-07-09T11:06:09;10.52;;;6.38;;
53263;SDS011;39153;52.680;6.172;2023-07-09T11:08:58;8.98;;;5.75;;
53263;SDS011;39153;52.680;6.172;2023-07-09T11:11:40;10.38;;;6.03;;
53263;SDS011;39153;52.680;6.172;2023-07-09T11:14:15;10.43;;;6.15;;
53263;SDS011;39153;52.680;6.172;2023-07-09T11:16:52;10.88;;;6.47;;
53263;SDS011;39153;52.680;6.172;2023-07-09T11:19:21;11.40;;;6.03;;
53263;SDS011;39153;52.680;6.172;2023-07-09T11:27:22;11.02;;;6.28;;
53263;SDS011;39153;52.680;6.172;2023-07-09T11:29:57;13.68;;;6.28;;
53263;SDS011;39153;52.680;6.172;2023-07-09T11:32:28;9.80;;;6.25;;
53263;SDS011;39153;52.680;6.172;2023-07-09T11:34:54;12.25;;;6.25;;
53263;SDS011;39153;52.680;6.172;2023-07-09T11:37:32;10.90;;;6.25;;
53263;SDS011;39153;52.680;6.172;2023-07-09T11:40:10;9.38;;;6.38;;
53263;SDS011;39153;52.680;6.172;2023-07-09T11:42:55;8.30;;;5.82;;
53263;SDS011;39153;52.680;6.172;2023-07-09T11:45:24;10.35;;;5.43;;
53263;SDS011;39153;52.680;6.172;2023-07-09T11:50:32;7.78;;;5.40;;
53263;SDS011;39153;52.680;6.172;2023-07-09T11:55:46;9.60;;;5.18;;
53263;SDS011;39153;52.680;6.172;2023-07-09T11:58:16;7.15;;;5.15;;
53263;SDS011;39153;52.680;6.172;2023-07-09T12:00:49;11.27;;;5.20;;
53263;SDS011;39153;52.680;6.172;2023-07-09T12:03:19;8.43;;;5.53;;
53263;SDS011;39153;52.680;6.172;2023-07-09T12:05:47;10.23;;;5.68;;
53263;SDS011;39153;52.680;6.172;2023-07-09T12:08:16;10.60;;;5.70;;
53263;SDS011;39153;52.680;6.172;2023-07-09T12:10:44;10.07;;;4.85;;
53263;SDS011;39153;52.680;6.172;2023-07-09T12:13:10;9.77;;;5.75;;
53263;SDS011;39153;52.680;6.172;2023-07-09T12:15:38;10.02;;;5.05;;
53263;SDS011;39153;52.680;6.172;2023-07-09T12:18:14;8.90;;;5.47;;
53263;SDS011;39153;52.680;6.172;2023-07-09T12:20:41;8.40;;;5.25;;
53263;SDS011;39153;52.680;6.172;2023-07-09T12:23:23;7.70;;;5.32;;
53263;SDS011;39153;52.680;6.172;2023-07-09T12:25:53;8.23;;;4.85;;
53263;SDS011;39153;52.680;6.172;2023-07-09T12:28:19;7.85;;;4.80;;
53263;SDS011;39153;52.680;6.172;2023-07-09T12:30:47;8.43;;;5.20;;
53263;SDS011;39153;52.680;6.172;2023-07-09T12:33:18;9.55;;;5.25;;
53263;SDS011;39153;52.680;6.172;2023-07-09T12:35:45;8.10;;;4.60;;
53263;SDS011;39153;52.680;6.172;2023-07-09T12:38:21;7.10;;;4.68;;
53263;SDS011;39153;52.680;6.172;2023-07-09T12:40:48;9.55;;;5.13;;
53263;SDS011;39153;52.680;6.172;2023-07-09T12:43:21;8.77;;;4.97;;
53263;SDS011;39153;52.680;6.172;2023-07-09T12:45:50;7.97;;;4.90;;
53263;SDS011;39153;52.680;6.172;2023-07-09T12:48:23;8.10;;;4.90;;
53263;SDS011;39153;52.680;6.172;2023-07-09T12:50:54;10.77;;;5.40;;
53263;SDS011;39153;52.680;6.172;2023-07-09T12:53:22;9.00;;;4.93;;
53263;SDS011;39153;52.680;6.172;2023-07-09T12:55:51;10.75;;;5.13;;
53263;SDS011;39153;52.680;6.172;2023-07-09T12:58:22;10.13;;;4.70;;
53263;SDS011;39153;52.680;6.172;2023-07-09T13:00:50;11.20;;;5.15;;
53263;SDS011;39153;52.680;6.172;2023-07-09T13:03:24;9.27;;;4.90;;
53263;SDS011;39153;52.680;6.172;2023-07-09T13:05:57;9.60;;;5.05;;
53263;SDS011;39153;52.680;6.172;2023-07-09T13:08:25;8.77;;;5.10;;
53263;SDS011;39153;52.680;6.172;2023-07-09T13:10:52;8.85;;;5.40;;
53263;SDS011;39153;52.680;6.172;2023-07-09T13:13:20;8.48;;;4.88;;
53263;SDS011;39153;52.680;6.172;2023-07-09T13:15:56;9.95;;;5.38;;
53263;SDS011;39153;52.680;6.172;2023-07-09T13:18:27;8.63;;;5.25;;
53263;SDS011;39153;52.680;6.172;2023-07-09T13:20:54;7.70;;;5.00;;
53263;SDS011;39153;52.680;6.172;2023-07-09T13:23:23;10.15;;;4.97;;
53263;SDS011;39153;52.680;6.172;2023-07-09T13:25:50;8.48;;;5.22;;
53263;SDS011;39153;52.680;6.172;2023-07-09T13:28:30;8.68;;;4.80;;
53263;SDS011;39153;52.680;6.172;2023-07-09T13:30:58;11.70;;;5.57;;
53263;SDS011;39153;52.680;6.172;2023-07-09T13:33:26;10.82;;;5.57;;
53263;SDS011;39153;52.680;6.172;2023-07-09T13:35:52;12.60;;;6.53;;
53263;SDS011;39153;52.680;6.172;2023-07-09T13:38:20;11.15;;;4.88;;
53263;SDS011;39153;52.680;6.172;2023-07-09T13:40:49;10.77;;;5.00;;
53263;SDS011;39153;52.680;6.172;2023-07-09T13:43:26;11.65;;;5.65;;
53263;SDS011;39153;52.680;6.172;2023-07-09T13:45:55;9.48;;;4.90;;
53263;SDS011;39153;52.680;6.172;2023-07-09T13:48:22;8.68;;;5.30;;
53263;SDS011;39153;52.680;6.172;2023-07-09T13:50:49;11.60;;;5.00;;
53263;SDS011;39153;52.680;6.172;2023-07-09T13:53:18;8.75;;;4.63;;
53263;SDS011;39153;52.680;6.172;2023-07-09T13:55:46;9.70;;;4.80;;
53263;SDS011;39153;52.680;6.172;2023-07-09T13:58:13;10.00;;;4.88;;
53263;SDS011;39153;52.680;6.172;2023-07-09T14:00:40;9.32;;;4.70;;
53263;SDS011;39153;52.680;6.172;2023-07-09T14:03:12;12.48;;;5.15;;
53263;SDS011;39153;52.680;6.172;2023-07-09T14:05:47;11.77;;;4.95;;
53263;SDS011;39153;52.680;6.172;2023-07-09T14:08:14;8.70;;;4.65;;
53263;SDS011;39153;52.680;6.172;2023-07-09T14:10:41;10.20;;;4.75;;
53263;SDS011;39153;52.680;6.172;2023-07-09T14:13:09;10.75;;;4.88;;
53263;SDS011;39153;52.680;6.172;2023-07-09T14:15:39;9.68;;;4.95;;
53263;SDS011;39153;52.680;6.172;2023-07-09T14:18:05;7.20;;;4.60;;
53263;SDS011;39153;52.680;6.172;2023-07-09T14:20:36;9.80;;;4.63;;
53263;SDS011;39153;52.680;6.172;2023-07-09T14:23:02;8.80;;;5.15;;
53263;SDS011;39153;52.680;6.172;2023-07-09T14:25:27;9.23;;;4.35;;
53263;SDS011;39153;52.680;6.172;2023-07-09T14:27:53;9.45;;;4.25;;
53263;SDS011;39153;52.680;6.172;2023-07-09T14:30:21;8.63;;;3.95;;
53263;SDS011;39153;52.680;6.172;2023-07-09T14:32:48;13.55;;;4.68;;
53263;SDS011;39153;52.680;6.172;2023-07-09T14:35:16;26.48;;;7.03;;
53263;SDS011;39153;52.680;6.172;2023-07-09T14:37:48;18.23;;;7.05;;
53263;SDS011;39153;52.680;6.172;2023-07-09T14:40:16;17.67;;;6.65;;
53263;SDS011;39153;52.680;6.172;2023-07-09T14:42:44;20.23;;;7.05;;
53263;SDS011;39153;52.680;6.172;2023-07-09T14:45:22;13.82;;;5.30;;
53263;SDS011;39153;52.680;6.172;2023-07-09T14:47:50;11.90;;;5.95;;
53263;SDS011;39153;52.680;6.172;2023-07-09T14:50:17;16.42;;;6.22;;
53263;SDS011;39153;52.680;6.172;2023-07-09T14:52:44;11.70;;;5.50;;
53263;SDS011;39153;52.680;6.172;2023-07-09T14:55:15;10.20;;;5.82;;
53263;SDS011;39153;52.680;6.172;2023-07-09T14:57:42;13.40;;;5.85;;
53263;SDS011;39153;52.680;6.172;2023-07-09T15:00:15;11.63;;;5.90;;
53263;SDS011;39153;52.680;6.172;2023-07-09T15:02:43;9.45;;;6.10;;
53263;SDS011;39153;52.680;6.172;2023-07-09T15:05:15;8.60;;;6.13;;
53263;SDS011;39153;52.680;6.172;2023-07-09T15:07:43;9.38;;;6.05;;
53263;SDS011;39153;52.680;6.172;2023-07-09T15:10:12;12.77;;;5.57;;
53263;SDS011;39153;52.680;6.172;2023-07-09T15:12:39;8.48;;;5.90;;
53263;SDS011;39153;52.680;6.172;2023-07-09T15:15:13;8.80;;;5.47;;
53263;SDS011;39153;52.680;6.172;2023-07-09T15:18:11;9.30;;;5.03;;
53263;SDS011;39153;52.680;6.172;2023-07-09T15:20:38;10.13;;;5.22;;
53263;SDS011;39153;52.680;6.172;2023-07-09T15:23:04;9.10;;;5.40;;
53263;SDS011;39153;52.680;6.172;2023-07-09T15:25:30;9.50;;;5.20;;
53263;SDS011;39153;52.680;6.172;2023-07-09T15:27:56;7.80;;;5.25;;